createdAt,value
2018-12-16T11:43:30.200Z,83.10
2018-12-16T11:45:58.313Z,83.10
2018-12-16T11:48:26.357Z,82.70
2018-12-16T11:50:54.416Z,82.70
2018-12-16T11:53:22.531Z,82.90
2018-12-16T11:55:50.565Z,82.60
2018-12-16T11:58:18.612Z,82.50
2018-12-16T12:00:46.752Z,82.40
2018-12-16T12:03:14.901Z,82.60
2018-12-16T12:05:44.920Z,82.80
2018-12-16T12:08:12.965Z,82.80
2018-12-16T12:10:41.081Z,82.90
2018-12-16T12:13:09.229Z,83.10
2018-12-16T12:15:37.304Z,82.70
2018-12-16T12:18:05.400Z,82.80
2018-12-16T12:20:33.439Z,82.90
2018-12-16T12:23:01.492Z,82.50
2018-12-16T12:25:29.629Z,83.00
2018-12-16T12:27:57.780Z,83.10
2018-12-16T12:30:25.897Z,82.90
2018-12-16T12:32:54.008Z,83.00
2018-12-16T12:35:22.097Z,82.50
2018-12-16T12:37:50.170Z,82.90
2018-12-16T12:40:18.226Z,83.50
2018-12-16T12:42:46.272Z,83.20
2018-12-16T12:45:14.725Z,83.20
2018-12-16T12:47:42.864Z,83.40
2018-12-16T12:50:10.944Z,83.00
2018-12-16T12:52:38.986Z,83.00
2018-12-16T12:55:07.067Z,82.60
2018-12-16T12:57:35.268Z,83.00
2018-12-16T13:00:05.801Z,82.50
2018-12-16T13:02:33.980Z,82.50
2018-12-16T13:05:02.112Z,82.00
2018-12-16T13:07:30.226Z,82.00
2018-12-16T13:09:58.394Z,82.50
2018-12-16T13:12:26.436Z,82.80
2018-12-16T13:14:54.583Z,82.50
2018-12-16T13:17:22.701Z,82.00
2018-12-16T13:19:50.740Z,81.40
2018-12-16T13:22:18.780Z,81.80
2018-12-16T13:24:58.897Z,82.00
2018-12-16T13:27:27.062Z,82.60
2018-12-16T13:29:55.137Z,82.50
2018-12-16T13:32:23.205Z,83.00
2018-12-16T13:34:51.253Z,83.10
2018-12-16T13:37:19.353Z,83.30
2018-12-16T13:39:47.419Z,83.40
2018-12-16T13:42:15.593Z,83.40
2018-12-16T13:44:43.663Z,83.30
2018-12-16T13:47:11.794Z,83.40
2018-12-16T13:49:39.841Z,83.80
2018-12-16T13:52:07.970Z,83.70
2018-12-16T13:54:36.135Z,83.90
2018-12-16T13:57:04.151Z,83.90
2018-12-16T13:59:32.278Z,83.60
2018-12-16T14:02:00.856Z,84.30
2018-12-16T14:04:29.235Z,84.80
2018-12-16T14:06:57.412Z,84.70
2018-12-16T14:09:25.608Z,84.60
2018-12-16T14:11:53.962Z,84.70
2018-12-16T14:14:22.135Z,85.10
2018-12-16T14:16:50.215Z,85.20
2018-12-16T14:19:18.504Z,86.00
2018-12-16T14:21:46.863Z,85.60
2018-12-16T14:24:15.133Z,85.60
2018-12-16T14:26:43.229Z,86.00
2018-12-16T14:29:11.313Z,86.00
2018-12-16T14:31:39.458Z,85.70
2018-12-16T14:34:07.539Z,85.90
2018-12-16T14:36:35.629Z,85.50
2018-12-16T14:39:05.730Z,85.90
2018-12-16T14:41:34.848Z,85.20
2018-12-16T14:44:02.957Z,85.60
2018-12-16T14:46:31.117Z,85.30
2018-12-16T14:48:59.157Z,85.40
2018-12-16T14:51:27.231Z,85.40
2018-12-16T14:53:55.259Z,85.30
2018-12-16T14:56:23.343Z,85.40
2018-12-16T14:58:51.544Z,85.30
2018-12-16T15:01:19.608Z,85.40
2018-12-16T15:03:47.685Z,85.30
2018-12-16T15:06:15.730Z,85.30
2018-12-16T15:08:43.989Z,85.30
2018-12-16T15:11:12.281Z,85.40
2018-12-16T15:13:40.305Z,85.60
2018-12-16T15:16:10.125Z,86.30
2018-12-16T15:18:38.347Z,86.00
2018-12-16T15:21:06.385Z,86.00
2018-12-16T15:23:34.412Z,85.90
2018-12-16T15:26:02.474Z,86.00
2018-12-16T15:28:30.504Z,86.10
2018-12-16T15:30:58.628Z,86.00
2018-12-16T15:33:26.714Z,85.90
2018-12-16T15:35:54.748Z,85.80
2018-12-16T15:38:22.840Z,85.90
2018-12-16T15:40:50.886Z,85.90
2018-12-16T15:43:18.915Z,86.20
2018-12-16T15:45:47.053Z,86.30
2018-12-16T15:48:15.103Z,86.20
2018-12-16T15:50:43.152Z,86.40
2018-12-16T15:53:11.193Z,86.70
2018-12-16T15:55:39.349Z,86.80
2018-12-16T15:58:07.373Z,86.80
2018-12-16T16:00:35.517Z,86.40
2018-12-16T16:03:03.649Z,86.50
2018-12-16T16:05:31.743Z,86.30
2018-12-16T16:07:59.805Z,86.50
2018-12-16T16:10:27.878Z,86.60
2018-12-16T16:12:55.977Z,86.70
2018-12-16T16:15:24.116Z,86.40
2018-12-16T16:17:53.337Z,86.60
2018-12-16T16:20:21.613Z,87.00
2018-12-16T16:22:49.705Z,87.10
2018-12-16T16:25:17.843Z,87.00
2018-12-16T16:27:46.030Z,86.80
2018-12-16T16:30:14.148Z,86.70
2018-12-16T16:32:42.293Z,86.80
2018-12-16T16:35:10.335Z,87.00
2018-12-16T16:37:40.247Z,86.90
2018-12-16T16:40:08.469Z,87.10
2018-12-16T16:42:36.606Z,86.60
2018-12-16T16:45:04.959Z,86.60
2018-12-16T16:47:34.210Z,86.20
2018-12-16T16:50:02.355Z,86.00
2018-12-16T16:52:30.461Z,85.80
2018-12-16T16:54:58.569Z,86.00
2018-12-16T16:57:26.708Z,85.80
2018-12-16T16:59:54.776Z,86.00
2018-12-16T17:02:22.818Z,86.00
2018-12-16T17:04:50.876Z,86.00
2018-12-16T17:07:18.949Z,86.10
2018-12-16T17:09:47.234Z,86.00
2018-12-16T17:12:15.337Z,86.40
2018-12-16T17:14:43.486Z,87.20
2018-12-16T17:17:11.557Z,87.90
2018-12-16T17:19:39.663Z,87.40
2018-12-16T17:22:08.106Z,86.90
2018-12-16T17:24:36.196Z,86.90
2018-12-16T17:27:04.386Z,86.80
2018-12-16T17:29:32.434Z,86.30
2018-12-16T17:32:00.623Z,86.20
2018-12-16T17:34:28.915Z,86.20
2018-12-16T17:36:56.921Z,86.20
2018-12-16T17:39:25.032Z,86.10
2018-12-16T17:41:53.194Z,86.40
2018-12-16T17:44:21.309Z,86.40
2018-12-16T17:46:49.540Z,86.40
2018-12-16T17:49:17.658Z,86.30
2018-12-16T17:51:45.844Z,86.00
2018-12-16T17:54:13.964Z,86.00
2018-12-16T17:56:42.020Z,86.90
2018-12-16T17:59:10.105Z,87.10
2018-12-16T18:01:38.236Z,87.20
2018-12-16T18:04:08.209Z,86.90
2018-12-16T18:06:36.261Z,86.50
2018-12-16T18:09:05.903Z,86.30
2018-12-16T18:11:33.976Z,86.20
2018-12-16T18:14:02.051Z,86.10
2018-12-16T18:16:30.089Z,85.90
2018-12-16T18:18:58.121Z,86.10
2018-12-16T18:21:26.261Z,86.10
2018-12-16T18:23:54.356Z,85.80
2018-12-16T18:26:22.474Z,85.90
2018-12-16T18:28:50.563Z,86.10
2018-12-16T18:31:18.593Z,86.40
2018-12-16T18:33:46.697Z,86.60
2018-12-16T18:36:14.860Z,86.90
2018-12-16T18:38:43.030Z,87.10
2018-12-16T18:41:11.103Z,87.40
2018-12-16T18:43:39.202Z,87.10
2018-12-16T18:46:07.353Z,87.10
2018-12-16T18:48:35.421Z,86.80
2018-12-16T18:51:03.474Z,86.70
2018-12-16T18:53:31.499Z,86.80
2018-12-16T18:55:59.641Z,86.40
2018-12-16T18:58:27.742Z,86.40
2018-12-16T19:00:55.901Z,86.70
2018-12-16T19:03:24.949Z,86.70
2018-12-16T19:05:52.984Z,86.80
2018-12-16T19:08:21.124Z,87.20
2018-12-16T19:10:49.380Z,87.40
2018-12-16T19:13:17.437Z,86.90
2018-12-16T19:15:45.576Z,87.10
2018-12-16T19:18:13.637Z,87.10
2018-12-16T19:20:41.915Z,87.50
2018-12-16T19:23:10.096Z,87.70
2018-12-16T19:25:38.235Z,87.90
2018-12-16T19:28:06.347Z,87.80
2018-12-16T19:30:34.578Z,87.50
2018-12-16T19:33:02.936Z,87.20
2018-12-16T19:35:32.052Z,87.00
2018-12-16T19:38:01.665Z,86.80
2018-12-16T19:40:30.400Z,86.30
2018-12-16T19:42:58.542Z,87.20
2018-12-16T19:45:26.686Z,87.60
2018-12-16T19:47:54.819Z,90.40
2018-12-16T19:50:22.933Z,89.20
2018-12-16T19:52:51.161Z,88.90
2018-12-16T19:55:19.638Z,88.20
2018-12-16T19:57:47.795Z,88.50
2018-12-16T20:00:15.865Z,88.00
2018-12-16T20:02:43.906Z,87.70
2018-12-16T20:05:21.761Z,87.30
2018-12-16T20:07:49.967Z,87.20
2018-12-16T20:10:18.076Z,87.10
2018-12-16T20:12:46.147Z,87.00
2018-12-16T20:15:14.236Z,86.80
2018-12-16T20:17:42.293Z,86.80
2018-12-16T20:20:11.623Z,86.50
2018-12-16T20:22:39.703Z,86.70
2018-12-16T20:25:07.775Z,86.80
2018-12-16T20:27:35.816Z,86.80
2018-12-16T20:30:06.577Z,86.90
2018-12-16T20:32:34.617Z,87.00
2018-12-16T20:35:02.831Z,86.80
2018-12-16T20:37:30.959Z,86.60
2018-12-16T20:39:59.038Z,86.60
2018-12-16T20:42:27.085Z,86.80
2018-12-16T20:44:55.177Z,87.00
2018-12-16T20:47:23.306Z,86.70
2018-12-16T20:49:51.429Z,86.60
2018-12-16T20:52:20.661Z,87.00
2018-12-16T20:54:48.874Z,87.30
2018-12-16T20:57:18.910Z,87.60
2018-12-16T20:59:46.967Z,87.90
2018-12-16T21:02:15.055Z,87.90
2018-12-16T21:04:43.123Z,88.70
2018-12-16T21:07:11.206Z,89.40
2018-12-16T21:09:39.370Z,89.00
2018-12-16T21:12:09.333Z,88.40
2018-12-16T21:14:43.176Z,88.00
2018-12-16T21:17:16.853Z,88.20
2018-12-16T21:19:44.968Z,88.10
2018-12-16T21:22:13.001Z,88.10
2018-12-16T21:24:41.024Z,87.80
2018-12-16T21:27:09.300Z,87.60
2018-12-16T21:29:37.361Z,87.10
2018-12-16T21:32:05.445Z,87.30
2018-12-16T21:34:33.508Z,87.10
2018-12-16T21:37:01.559Z,87.10
2018-12-16T21:39:29.648Z,87.00
2018-12-16T21:41:57.681Z,87.10
2018-12-16T21:44:25.784Z,86.80
2018-12-16T21:46:53.864Z,86.60
2018-12-16T21:49:21.900Z,86.70
2018-12-16T21:51:49.996Z,86.50
2018-12-16T21:54:18.029Z,86.90
2018-12-16T21:56:46.150Z,86.60
2018-12-16T21:59:14.243Z,86.50
2018-12-16T22:01:42.413Z,87.10
2018-12-16T22:04:10.549Z,87.10
2018-12-16T22:06:38.653Z,87.00
2018-12-16T22:09:07.029Z,87.00
2018-12-16T22:11:36.058Z,87.50
2018-12-16T22:14:04.125Z,87.80
2018-12-16T22:16:32.134Z,87.60
2018-12-16T22:19:00.219Z,87.60
2018-12-16T22:21:28.275Z,87.60
2018-12-16T22:23:56.304Z,87.40
2018-12-16T22:26:24.378Z,87.70
2018-12-16T22:28:52.405Z,87.60
2018-12-16T22:31:20.474Z,87.20
2018-12-16T22:33:48.508Z,86.90
2018-12-16T22:36:16.537Z,86.90
2018-12-16T22:38:44.590Z,87.10
2018-12-16T22:41:12.645Z,87.20
2018-12-16T22:43:40.896Z,87.30
2018-12-16T22:46:08.953Z,87.10
2018-12-16T22:48:36.982Z,86.80
2018-12-16T22:51:05.004Z,86.90
2018-12-16T22:53:33.051Z,86.70
2018-12-16T22:56:01.150Z,86.70
2018-12-16T22:58:29.200Z,86.70
2018-12-16T23:01:02.818Z,86.30
2018-12-16T23:03:31.901Z,86.30
2018-12-16T23:06:01.862Z,86.10
2018-12-16T23:08:29.896Z,86.60
2018-12-16T23:10:58.028Z,86.90
2018-12-16T23:13:27.126Z,87.20
2018-12-16T23:15:55.209Z,86.90
2018-12-16T23:18:23.282Z,86.90
2018-12-16T23:20:51.309Z,87.10
2018-12-16T23:23:19.349Z,87.00
2018-12-16T23:25:47.380Z,86.80
2018-12-16T23:28:15.751Z,86.90
2018-12-16T23:30:43.834Z,86.90
2018-12-16T23:33:11.913Z,86.70
2018-12-16T23:35:39.939Z,86.50
2018-12-16T23:38:07.971Z,86.50
2018-12-16T23:40:36.008Z,86.50
2018-12-16T23:43:04.042Z,86.60
2018-12-16T23:45:32.076Z,86.60
2018-12-16T23:48:00.113Z,86.90
2018-12-16T23:50:28.207Z,86.70
2018-12-16T23:52:56.236Z,86.60
2018-12-16T23:55:24.261Z,86.40
2018-12-16T23:57:52.296Z,86.80
